Latest Weather Observations for Mawson*

IDT60801

Issued at 3:31 am EST Tuesday 18 June 2019 (issued every 10 minutes, with the page automatically refreshed every 10 minutes)

About weather observations | Map of weather stations | Latest weather observations for ANT | Other Formats
Station Details ID: 300001 Name: MAWSON Lat: -67.60 Lon: 62.88 Height: 9.9 m
Data from the previous 72 hours. | See also: Recent months at Mawson*
Date/Time
EST
Temp
°C
App
Temp
°C
Dew
Point
°C
Rel
Hum
%
Delta-T
°C
Wind Press
QNH
hPa
Press
MSL
hPa
Rain since
9am
mm
Dir  Spd
km/h
Gust
km/h
Spd
kts
Gust
kts
18/03:30am -18.5 -30.0 -23.9 62 - S 41 54 22 29 989.6 - -
18/03:18am -18.5 -30.4 -23.6 64 - S 43 50 23 27 989.3 - -
18/03:00am -19.4 -27.3 -23.6 69 - WSW 22 32 12 17 990.2 - -
18/02:30am -17.9 -27.7 -24.1 58 - S 32 43 17 23 990.1 - -
18/02:11am -18.6 -27.6 -23.9 63 - S 28 35 15 19 990.1 - -
18/02:00am -18.1 -23.1 -23.2 64 - S 7 15 4 8 990.3 - -
18/01:30am -17.3 -27.1 -23.2 60 - S 32 39 17 21 990.2 - -
18/01:19am -17.9 -29.8 -23.7 60 - S 43 50 23 27 990.3 - -
18/01:00am -18.0 -23.8 -22.4 68 - W 11 19 6 10 990.2 990.4 -
18/12:49am -18.5 -26.7 -22.9 68 - E 24 37 13 20 989.9 - -
18/12:38am -19.1 -30.2 -23.5 68 - SSE 39 46 21 25 989.9 - -
18/12:30am -18.2 -24.0 -22.8 67 - SE 11 20 6 11 990.4 - -
18/12:00am -18.3 -24.1 -22.6 69 - NW 11 17 6 9 990.5 - -
 
Date/Time
EST
Temp
°C
App
Temp
°C
Dew
Point
°C
Rel
Hum
%
Delta-T
°C
Wind Press
QNH
hPa
Press
MSL
hPa
Rain since
9am
mm
Dir  Spd
km/h
Gust
km/h
Spd
kts
Gust
kts
17/11:30pm -17.8 -23.6 -22.4 67 - W 11 20 6 11 990.3 - -
17/11:00pm -18.5 -24.6 -22.9 68 - E 13 15 7 8 990.3 - -
17/10:42pm -18.0 -27.0 -22.9 65 - S 28 39 15 21 990.4 - -
17/10:30pm -18.5 -23.9 -21.8 75 - SE 9 17 5 9 990.7 - -
17/10:00pm -20.2 -25.0 -23.3 76 - NNE 6 11 3 6 990.6 990.8 -
17/09:30pm -19.1 -24.1 -22.4 75 - ENE 7 11 4 6 990.5 - -
17/09:00pm -20.4 -25.8 -22.9 80 - E 9 15 5 8 990.6 - -
17/08:30pm -20.5 -25.9 -23.0 80 - E 9 15 5 8 990.6 - -
17/08:00pm -20.3 -26.1 -22.8 80 - E 11 17 6 9 990.5 - -
17/07:30pm -17.8 -23.5 -21.0 76 - WSW 11 17 6 9 990.6 - -
17/07:00pm -19.7 -24.7 -22.5 78 - SSE 7 13 4 7 990.6 990.8 -
17/06:32pm -17.8 -26.7 -20.1 82 - SSW 28 43 15 23 990.7 - -
17/06:30pm -18.7 -23.1 -20.7 84 - ESE 4 13 2 7 990.8 - -
17/06:00pm -19.2 -24.0 -21.2 84 - SSE 6 11 3 6 991.0 - -
17/05:30pm -19.4 -24.7 -21.4 84 - NNE 9 15 5 8 991.0 - -
17/05:00pm -18.9 -23.7 -20.9 84 - W 6 9 3 5 991.3 - -
17/04:30pm -18.3 -23.0 -20.2 85 - WSW 6 11 3 6 991.6 - -
17/04:00pm -17.7 -23.0 -19.6 85 - WSW 9 11 5 6 991.7 991.9 -
17/03:30pm -17.6 -22.5 -19.5 85 - W 7 9 4 5 991.8 - -
17/03:00pm -17.5 -21.1 -19.4 85 - CALM 0 0 0 0 991.8 - -
17/02:30pm -17.5 -21.1 -19.4 85 - CALM 0 4 0 2 991.7 - -
17/02:00pm -17.5 -22.2 -19.4 85 - N 6 7 3 4 991.7 - -
17/01:30pm -17.5 -22.2 -19.4 85 - N 6 7 3 4 991.9 - -
17/01:00pm -17.5 -21.1 -19.4 85 - CALM 0 0 0 0 992.1 992.3 -
17/12:30pm -17.6 -21.5 -19.5 85 - N 2 7 1 4 992.1 - -
17/12:00pm -17.5 -22.4 -19.4 85 - N 7 11 4 6 992.0 - -
17/11:30am -17.5 -21.8 -19.4 85 - N 4 6 2 3 992.1 - -
17/11:00am -17.4 -22.7 -19.3 85 - N 9 11 5 6 992.1 - -
17/10:30am -17.2 -22.8 -19.2 84 - NNE 11 15 6 8 991.9 - -
17/10:00am -17.2 -22.8 -19.1 85 - NE 11 13 6 7 991.9 992.1 -
17/09:30am -17.4 -23.8 -19.4 84 - NE 15 19 8 10 991.7 - -
17/09:00am -17.4 -24.8 -19.3 85 - NE 20 28 11 15 991.5 - -
17/08:30am -17.3 -27.1 -19.3 84 - NNE 33 39 18 21 991.3 - -
17/08:00am -16.9 -25.4 -19.1 83 - NNE 26 33 14 18 991.2 - -
17/07:30am -16.2 -23.9 -18.4 83 - NNE 22 30 12 16 990.6 - -
17/07:00am -15.8 -22.9 -18.2 82 - NNE 19 26 10 14 990.7 990.9 -
17/06:43am -13.0 -21.7 -16.0 78 - E 28 37 15 20 990.4 - -
17/06:30am -13.0 -25.2 -16.0 78 - SE 46 54 25 29 989.9 - -
17/06:00am -13.1 -26.8 -15.8 80 - SE 54 59 29 32 989.5 - -
17/05:30am -13.4 -27.1 -15.8 82 - SE 54 59 29 32 989.3 - -
17/05:00am -13.1 -27.7 -15.4 83 - SE 59 65 32 35 989.1 - -
17/04:30am -13.3 -28.3 -15.4 84 - SE 61 69 33 37 989.0 - -
17/04:00am -13.5 -28.9 -15.6 84 - ESE 63 70 34 38 989.1 989.3 -
17/03:30am -13.6 -27.3 -15.7 84 - ESE 54 69 29 37 989.0 - -
17/03:00am -13.7 -27.0 -15.8 84 - ESE 52 67 28 36 989.1 - -
17/02:46am -13.8 -26.7 -15.8 85 - ESE 50 69 27 37 989.2 - -
17/02:30am -13.8 -25.9 -15.8 85 - ESE 46 61 25 33 989.2 - -
17/02:00am -13.9 -26.4 -15.9 85 - ESE 48 59 26 32 989.2 - -
17/01:38am -13.6 -26.1 -15.7 84 - ESE 48 67 26 36 988.8 - -
17/01:30am -13.9 -27.6 -15.9 85 - ESE 54 69 29 37 988.8 - -
17/01:08am -13.9 -27.2 -15.9 85 - ESE 52 70 28 38 988.6 - -
17/01:00am -13.6 -27.6 -15.4 86 - ESE 56 69 30 37 988.6 988.8 -
17/12:46am -14.0 -28.6 -16.0 85 - ESE 59 78 32 42 988.6 - -
17/12:30am -14.1 -29.1 -16.1 85 - ESE 61 72 33 39 988.5 - -
17/12:00am -14.2 -28.2 -15.7 88 - ESE 56 70 30 38 988.6 - -
 
Date/Time
EST
Temp
°C
App
Temp
°C
Dew
Point
°C
Rel
Hum
%
Delta-T
°C
Wind Press
QNH
hPa
Press
MSL
hPa
Rain since
9am
mm
Dir  Spd
km/h
Gust
km/h
Spd
kts
Gust
kts
16/11:30pm -14.2 -28.2 -15.7 88 - ESE 56 70 30 38 988.4 - -
16/11:00pm -14.4 -28.1 -16.1 87 - ESE 54 67 29 36 988.3 - -
16/10:30pm -14.3 -26.1 -16.0 87 - ESE 44 63 24 34 988.4 - -
16/10:21pm -14.4 -25.6 -16.1 87 - ESE 41 61 22 33 988.6 - -
16/10:00pm -14.5 -26.3 -16.3 86 - ESE 44 54 24 29 988.7 988.9 -
16/09:30pm -14.7 -26.5 -16.6 85 - ESE 44 54 24 29 988.9 - -
16/09:00pm -14.5 -26.3 -16.7 83 - ESE 44 54 24 29 988.7 - -
16/08:30pm -14.5 -27.1 -17.0 81 - ESE 48 59 26 32 988.5 - -
16/08:00pm -14.5 -26.7 -17.0 81 - ESE 46 57 25 31 988.3 - -
16/07:30pm -14.6 -26.4 -17.0 82 - ESE 44 56 24 30 988.4 - -
16/07:00pm -14.7 -26.3 -16.8 84 - ESE 43 54 23 29 988.5 988.7 -
16/06:30pm -14.7 -24.8 -16.8 84 - E 35 43 19 23 988.4 - -
16/06:00pm -14.6 -24.1 -16.7 84 - E 32 41 17 22 988.3 - -
16/05:30pm -14.6 -23.8 -16.8 83 - E 30 39 16 21 988.3 - -
16/05:00pm -14.4 -24.9 -17.1 80 - E 37 50 20 27 987.6 - -
16/04:30pm -14.5 -25.4 -16.9 82 - ESE 39 50 21 27 987.2 - -
16/04:21pm -14.5 -25.4 -16.9 82 - ESE 39 44 21 24 987.0 - -
16/04:00pm -14.8 -29.1 -17.0 83 - ESE 57 69 31 37 986.7 986.9 -
16/03:30pm -14.8 -29.9 -17.2 82 - SE 61 70 33 38 986.4 - -
16/03:00pm -15.1 -30.2 -17.5 82 - ESE 61 72 33 39 986.1 - -
16/02:30pm -15.1 -30.2 -17.3 83 - ESE 61 70 33 38 986.0 - -
16/02:00pm -15.0 -28.7 -17.1 84 - ESE 54 63 29 34 986.0 - -
16/01:30pm -14.9 -29.2 -17.1 83 - ESE 57 65 31 35 985.6 - -
16/01:00pm -15.0 -29.3 -17.2 83 - SE 57 67 31 36 985.4 985.6 -
16/12:30pm -15.2 -29.5 -17.3 84 - SE 57 70 31 38 985.2 - -
16/12:00pm -15.1 -28.8 -17.2 84 - SE 54 65 29 35 985.1 - -
16/11:30am -15.1 -28.8 -17.3 83 - SE 54 65 29 35 984.9 - -
16/11:00am -15.3 -29.6 -17.5 83 - ESE 57 67 31 36 984.6 - -
16/10:30am -15.5 -30.6 -17.6 84 - SE 61 74 33 40 984.1 - -
16/10:00am -15.6 -30.7 -17.5 85 - SE 61 72 33 39 983.8 984.0 -
16/09:30am -15.6 -31.4 -17.4 86 - SE 65 78 35 42 983.6 - -
16/09:00am -15.6 -31.1 -17.5 85 - SE 63 80 34 43 983.0 - -
16/08:37am -15.8 -31.6 -17.7 85 - SE 65 87 35 47 982.8 - -
16/08:30am -15.9 -31.4 -17.7 86 - SE 63 78 34 42 983.5 - -
16/08:00am -16.1 -30.4 -17.9 86 - SE 57 70 31 38 983.2 - -
16/07:58am -16.2 -30.0 -18.0 86 - SE 54 59 29 32 983.3 - -
16/07:30am -16.2 -33.4 -18.0 86 - SE 72 83 39 45 983.0 - -
16/07:00am -16.4 -34.3 -18.0 87 - SE 76 93 41 50 983.0 983.2 -
16/06:30am -16.5 -33.3 -18.3 86 - SE 70 83 38 45 983.2 - -
16/06:10am -16.6 -31.7 -18.4 86 - SE 61 82 33 44 983.6 - -
16/06:00am -16.7 -33.3 -18.5 86 - SE 69 82 37 44 983.1 - -
16/05:30am -16.8 -32.3 -18.6 86 - SE 63 89 34 48 983.4 - -
16/05:00am -16.8 -31.9 -18.6 86 - SE 61 80 33 43 983.0 - -
16/04:48am -16.8 -31.9 -18.6 86 - SE 61 80 33 43 983.8 - -
16/04:46am -16.8 -34.0 -18.6 86 - SE 72 80 39 43 983.0 - -
16/04:35am -16.8 -29.8 -18.7 85 - ESE 50 72 27 39 983.1 - -
16/04:34am -16.8 -28.7 -18.7 85 - E 44 59 24 32 983.7 - -
16/04:30am -16.8 -31.5 -18.6 86 - SE 59 82 32 44 983.1 - -
16/04:00am -16.8 -31.9 -18.6 86 - SE 61 80 33 43 983.0 983.2 -
16/03:49am -16.8 -33.1 -18.6 86 - SE 67 85 36 46 983.1 - -
16/03:30am -16.8 -33.6 -18.4 87 - ESE 70 85 38 46 982.7 - -
16/03:00am -16.8 -31.5 -18.4 87 - ESE 59 74 32 40 982.4 - -
16/02:30am -16.7 -31.8 -18.5 86 - ESE 61 85 33 46 982.6 - -
16/02:25am -16.9 -32.8 -18.7 86 - SE 65 85 35 46 982.3 - -
16/02:00am -17.2 -33.9 -19.0 86 - SE 69 82 37 44 982.0 - -
16/01:30am -17.2 -33.9 -19.1 85 - SE 69 78 37 42 982.0 - -
16/01:08am -17.2 -33.1 -19.4 83 - SE 65 83 35 45 982.1 - -
16/01:00am -17.2 -33.5 -19.5 82 - SE 67 78 36 42 982.3 982.5 -
16/12:30am -17.3 -33.2 -19.5 83 - SE 65 76 35 41 982.1 - -
16/12:00am -17.2 -33.1 -20.0 79 - SE 65 76 35 41 981.9 - -
 
Date/Time
EST
Temp
°C
App
Temp
°C
Dew
Point
°C
Rel
Hum
%
Delta-T
°C
Wind Press
QNH
hPa
Press
MSL
hPa
Rain since
9am
mm
Dir  Spd
km/h
Gust
km/h
Spd
kts
Gust
kts
15/11:30pm -17.3 -31.7 -20.0 79 - SE 57 69 31 37 982.1 - -
15/11:21pm -17.3 -30.0 -20.0 79 - SE 48 67 26 36 982.3 - -
15/11:00pm -17.3 -31.2 -20.2 78 - SE 54 67 29 36 982.4 - -
15/10:31pm -17.7 -31.9 -20.3 80 - SE 56 74 30 40 981.9 - -
15/10:30pm -17.7 -31.9 -20.3 80 - SE 56 69 30 37 981.9 - -
15/10:17pm -17.4 -29.8 -21.9 68 - SSE 46 67 25 36 982.6 - -
15/10:14pm -17.4 -30.2 -21.9 68 - SSE 48 63 26 34 982.5 - -
15/10:00pm -16.6 -29.7 -21.1 68 - ESE 50 76 27 41 982.3 982.5 -
15/09:39pm -17.2 -30.4 -22.0 66 - ESE 50 69 27 37 982.6 - -
15/09:30pm -17.5 -31.0 -22.3 66 - SE 52 65 28 35 981.9 - -
15/09:10pm -17.3 -29.3 -22.8 62 - SE 44 65 24 35 982.0 - -
15/09:00pm -17.5 -30.3 -22.8 63 - SE 48 65 26 35 982.1 - -
15/08:55pm -17.0 -30.1 -21.6 67 - SE 50 69 27 37 982.1 - -
15/08:30pm -18.4 -33.7 -22.3 71 - SE 61 72 33 39 982.1 - -
15/08:00pm -18.5 -34.1 -22.4 71 - SE 63 76 34 41 982.0 - -
15/07:48pm -18.5 -32.4 -22.4 71 - SE 54 67 29 36 982.3 - -
15/07:45pm -18.1 -29.9 -22.5 68 - SSE 43 61 23 33 982.5 - -
15/07:30pm -18.2 -32.5 -22.1 71 - SE 56 72 30 39 982.3 - -
15/07:05pm -18.2 -31.7 -22.6 68 - SE 52 72 28 39 982.3 - -
15/07:00pm -17.7 -31.6 -21.8 70 - SE 54 67 29 36 982.6 982.8 -
15/06:56pm -18.0 -32.3 -21.9 71 - SE 56 67 30 36 982.4 - -
15/06:34pm -17.6 -27.9 -22.1 68 - SE 35 57 19 31 982.7 - -
15/06:30pm -18.0 -27.0 -23.3 63 - SE 28 44 15 24 982.6 - -
15/06:10pm -17.2 -28.3 -21.8 67 - SE 39 57 21 31 982.7 - -
15/06:07pm -16.6 -29.0 -20.9 69 - ESE 46 57 25 31 982.6 - -
15/06:00pm -18.6 -32.6 -23.5 65 - SSE 54 74 29 40 982.4 - -
15/05:30pm -18.6 -31.0 -22.7 70 - SE 46 67 25 36 982.9 - -
15/05:01pm -19.4 -31.8 -22.7 75 - SE 46 65 25 35 982.7 - -
15/05:00pm -19.0 -31.8 -22.1 76 - SE 48 65 26 35 982.8 - -
15/04:33pm -19.6 -33.5 -23.3 72 - SE 54 72 29 39 983.2 - -
15/04:30pm -19.7 -34.0 -23.1 74 - SE 56 72 30 39 983.2 - -
15/04:00pm -19.5 -32.7 -22.9 74 - SE 50 61 27 33 983.6 983.8 -
15/03:30pm -19.6 -34.9 -23.0 74 - SE 61 70 33 38 982.9 - -
15/03:12pm -19.6 -33.2 -22.9 75 - SE 52 70 28 38 983.3 - -
15/03:00pm -19.4 -34.3 -23.0 73 - SE 59 70 32 38 982.5 - -
15/02:30pm -19.4 -35.0 -22.8 74 - SE 63 70 34 38 982.7 - -
15/02:00pm -19.7 -35.7 -23.4 72 - SE 65 74 35 40 982.5 - -
15/01:30pm -19.4 -33.9 -23.8 68 - SE 57 69 31 37 982.6 - -
15/01:17pm -17.8 -31.0 -22.1 69 - ESE 50 69 27 37 982.9 - -
15/01:00pm -19.2 -33.2 -23.8 67 - SE 54 69 29 37 982.6 982.8 -
15/12:30pm -18.6 -30.7 -23.5 65 - SE 44 63 24 34 982.6 - -
15/12:20pm -17.6 -29.0 -21.9 69 - SE 41 59 22 32 982.3 - -
15/12:00pm -18.6 -31.0 -23.3 66 - SE 46 61 25 33 982.3 - -
15/11:30am -18.8 -30.9 -23.7 65 - SE 44 65 24 35 982.4 - -
15/11:19am -18.6 -31.0 -23.5 65 - SE 46 65 25 35 982.4 - -
15/11:00am -18.9 -33.4 -23.8 65 - SE 57 67 31 36 982.0 - -
15/10:44am -18.6 -30.5 -23.5 65 - SE 43 61 23 33 982.4 - -
15/10:30am -18.4 -30.2 -22.8 68 - SE 43 57 23 31 982.0 - -
15/10:00am -19.1 -31.5 -23.7 67 - SE 46 61 25 33 982.2 982.4 -
15/09:30am -18.7 -32.3 -23.4 66 - SE 52 65 28 35 982.1 - -
15/09:00am -19.4 -33.8 -25.2 60 - SE 56 63 30 34 981.8 - -
15/08:30am -19.5 -33.9 -26.8 52 - SE 56 63 30 34 981.7 - -
15/08:00am -19.8 -35.6 -29.1 43 - SE 63 70 34 38 981.3 - -

Other formats

Comma delimited format used in spreadsheet applications
http://www.bom.gov.au/fwo/IDT60803/IDT60803.89564.axf

JavaScript Object Notation format (JSON) in row-major order
http://www.bom.gov.au/fwo/IDT60803/IDT60803.89564.json

Data quality

Most of these data are generated automatically and are frequently updated. Quality checks on data are not normally performed. It is possible for incorrect values to appear. Refer to information at About Latest Weather Observations and please check the disclaimer before using these data.